createdAt,value
2022-08-12T00:00:18.912Z,18.41
2022-08-12T00:02:03.304Z,18.47
2022-08-12T00:03:21.621Z,18.53
2022-08-12T00:04:43.968Z,18.51
2022-08-12T00:06:06.228Z,18.54
2022-08-12T00:07:32.443Z,18.49
2022-08-12T00:08:56.161Z,18.48
2022-08-12T00:10:17.348Z,18.45
2022-08-12T00:11:40.107Z,18.49
2022-08-12T00:13:01.468Z,18.49
2022-08-12T00:14:23.353Z,18.48
2022-08-12T00:15:45.179Z,18.58
2022-08-12T00:17:07.406Z,18.41
2022-08-12T00:18:29.176Z,18.62
2022-08-12T00:19:50.783Z,18.50
2022-08-12T00:21:12.095Z,18.55
2022-08-12T00:22:33.934Z,18.52
2022-08-12T00:23:55.340Z,18.56
2022-08-12T00:25:20.170Z,18.36
2022-08-12T00:27:02.597Z,18.47
2022-08-12T00:28:24.391Z,18.54
2022-08-12T00:29:48.138Z,18.64
2022-08-12T00:31:09.926Z,18.57
2022-08-12T00:32:36.042Z,18.65
2022-08-12T00:33:57.969Z,18.63
2022-08-12T00:35:22.710Z,18.64
2022-08-12T00:36:50.215Z,18.65
2022-08-12T00:38:12.875Z,18.58
2022-08-12T00:39:34.462Z,18.53
2022-08-12T00:40:57.770Z,18.57
2022-08-12T00:42:12.858Z,18.44
2022-08-12T00:43:16.888Z,18.52
2022-08-12T00:44:24.232Z,18.54
2022-08-12T00:45:48.624Z,18.53
2022-08-12T00:46:53.855Z,18.52
2022-08-12T00:47:57.099Z,18.53
2022-08-12T00:49:02.233Z,18.56
2022-08-12T00:50:06.846Z,18.66
2022-08-12T00:51:11.000Z,18.66
2022-08-12T00:52:14.300Z,18.59
2022-08-12T00:53:19.250Z,18.52
2022-08-12T00:54:22.317Z,18.51
2022-08-12T00:55:25.614Z,18.47
2022-08-12T00:56:29.931Z,18.46
2022-08-12T00:57:37.050Z,18.42
2022-08-12T00:58:47.983Z,18.36
2022-08-12T00:59:53.077Z,18.39
2022-08-12T01:01:04.885Z,18.37
2022-08-12T01:02:11.447Z,18.35
2022-08-12T01:03:20.265Z,18.27
2022-08-12T01:04:47.005Z,18.32
2022-08-12T01:06:11.164Z,18.31
2022-08-12T01:07:33.438Z,18.28
2022-08-12T01:08:55.117Z,18.26
2022-08-12T01:10:17.201Z,18.12
2022-08-12T01:11:29.497Z,18.14
2022-08-12T01:12:33.475Z,18.09
2022-08-12T01:13:42.519Z,18.27
2022-08-12T01:14:46.016Z,18.14
2022-08-12T01:15:54.609Z,18.12
2022-08-12T01:16:58.318Z,17.99
2022-08-12T01:18:01.987Z,18.03
2022-08-12T01:19:08.900Z,18.15
2022-08-12T01:20:34.625Z,18.07
2022-08-12T01:21:52.632Z,18.02
2022-08-12T01:23:49.018Z,18.01
2022-08-12T01:25:00.682Z,18.06
2022-08-12T01:26:07.070Z,18.04
2022-08-12T01:27:11.627Z,18.06
2022-08-12T01:28:16.664Z,18.04
2022-08-12T01:29:33.328Z,18.02
2022-08-12T01:30:39.966Z,17.99
2022-08-12T01:31:45.904Z,18.00
2022-08-12T01:32:50.244Z,18.01
2022-08-12T01:34:35.605Z,18.08
2022-08-12T01:35:32.008Z,18.03
2022-08-12T01:36:50.828Z,17.92
2022-08-12T01:37:57.559Z,18.00
2022-08-12T01:39:02.567Z,17.95
2022-08-12T01:40:33.648Z,17.97
2022-08-12T01:41:31.772Z,17.99
2022-08-12T01:42:44.935Z,17.91
2022-08-12T01:43:49.306Z,17.90
2022-08-12T01:44:56.481Z,17.90
2022-08-12T01:46:29.920Z,17.96
2022-08-12T01:47:51.803Z,18.04
2022-08-12T01:49:07.599Z,17.94
2022-08-12T01:50:26.836Z,17.87
2022-08-12T01:52:20.212Z,17.83
2022-08-12T01:53:12.158Z,17.87
2022-08-12T01:54:19.320Z,17.98
2022-08-12T01:55:39.191Z,17.89
2022-08-12T01:57:03.472Z,17.89
2022-08-12T01:58:58.230Z,17.88
2022-08-12T02:00:06.489Z,17.89
2022-08-12T02:01:13.653Z,17.76
2022-08-12T02:02:27.591Z,17.74
2022-08-12T02:04:21.218Z,17.78
2022-08-12T02:06:21.856Z,17.76
2022-08-12T02:07:57.183Z,17.80
2022-08-12T02:09:22.417Z,17.70
2022-08-12T02:10:52.065Z,17.63
2022-08-12T02:12:06.183Z,17.58
2022-08-12T02:13:49.583Z,17.64
2022-08-12T02:14:59.101Z,17.62
2022-08-12T02:16:32.615Z,17.76
2022-08-12T02:18:06.471Z,17.68
2022-08-12T02:19:26.209Z,17.61
2022-08-12T02:22:41.833Z,17.48
2022-08-12T02:23:44.907Z,17.36
2022-08-12T02:24:50.271Z,17.28
2022-08-12T02:25:57.289Z,17.46
2022-08-12T02:27:02.264Z,17.41
2022-08-12T02:28:06.081Z,17.43
2022-08-12T02:29:13.289Z,17.43
2022-08-12T02:30:19.676Z,17.43
2022-08-12T02:31:25.248Z,17.43
2022-08-12T02:32:28.183Z,17.52
2022-08-12T02:33:33.484Z,17.44
2022-08-12T02:34:38.172Z,17.54
2022-08-12T02:35:41.188Z,17.39
2022-08-12T02:36:45.318Z,17.38
2022-08-12T02:37:50.604Z,17.25
2022-08-12T02:38:55.613Z,17.24
2022-08-12T02:40:02.620Z,17.35
2022-08-12T02:41:07.300Z,17.29
2022-08-12T02:42:12.249Z,17.23
2022-08-12T02:43:27.781Z,17.23
2022-08-12T02:44:36.519Z,17.22
2022-08-12T02:45:46.616Z,17.15
2022-08-12T02:46:56.778Z,17.27
2022-08-12T02:48:06.853Z,17.25
2022-08-12T02:49:32.988Z,17.33
2022-08-12T02:50:42.521Z,17.28
2022-08-12T02:51:46.035Z,17.16
2022-08-12T02:52:52.563Z,17.19
2022-08-12T02:54:05.624Z,17.16
2022-08-12T02:55:28.309Z,17.23
2022-08-12T02:56:42.074Z,17.20
2022-08-12T02:57:57.459Z,17.29
2022-08-12T02:59:05.080Z,17.40
2022-08-12T03:00:09.141Z,17.22
2022-08-12T03:01:14.021Z,17.33
2022-08-12T03:02:21.892Z,17.26
2022-08-12T03:03:31.790Z,17.28
2022-08-12T03:04:54.196Z,17.30
2022-08-12T03:06:03.626Z,17.33
2022-08-12T03:07:22.173Z,17.27
2022-08-12T03:08:37.357Z,17.27
2022-08-12T03:10:04.672Z,17.29
2022-08-12T03:11:20.981Z,17.26
2022-08-12T03:12:26.981Z,17.24
2022-08-12T03:13:41.981Z,17.24
2022-08-12T03:14:45.027Z,17.15
2022-08-12T03:15:50.460Z,17.23
2022-08-12T03:17:10.931Z,17.11
2022-08-12T03:18:28.962Z,17.23
2022-08-12T03:19:32.345Z,17.16
2022-08-12T03:20:42.463Z,17.21
2022-08-12T03:21:53.138Z,17.31
2022-08-12T03:23:19.359Z,17.23
2022-08-12T03:24:34.533Z,17.09
2022-08-12T03:25:41.009Z,17.29
2022-08-12T03:26:47.702Z,17.20
2022-08-12T03:27:56.240Z,17.21
2022-08-12T03:29:01.618Z,17.24
2022-08-12T03:30:05.202Z,17.15
2022-08-12T03:31:09.905Z,17.10
2022-08-12T03:32:36.025Z,17.13
2022-08-12T03:33:40.673Z,17.16
2022-08-12T03:34:43.641Z,17.17
2022-08-12T03:35:57.575Z,17.15
2022-08-12T03:37:01.101Z,17.17
2022-08-12T03:38:08.788Z,17.25
2022-08-12T03:39:16.231Z,17.27
2022-08-12T03:40:38.108Z,17.23
2022-08-12T03:41:50.313Z,17.22
2022-08-12T03:43:12.067Z,17.17
2022-08-12T03:44:56.764Z,17.13
2022-08-12T03:46:24.563Z,17.26
2022-08-12T03:47:57.599Z,17.29
2022-08-12T03:49:19.286Z,17.31
2022-08-12T03:50:40.874Z,17.28
2022-08-12T03:52:02.811Z,17.25
2022-08-12T03:53:26.535Z,17.15
2022-08-12T03:54:48.052Z,17.14
2022-08-12T03:56:09.482Z,17.18
2022-08-12T03:57:30.972Z,17.11
2022-08-12T03:58:52.897Z,17.13
2022-08-12T04:00:24.185Z,17.11
2022-08-12T04:01:27.872Z,17.16
2022-08-12T04:02:34.708Z,17.19
2022-08-12T04:03:53.570Z,17.15
2022-08-12T04:04:57.281Z,17.21
2022-08-12T04:06:01.002Z,17.15
2022-08-12T04:07:12.237Z,17.15
2022-08-12T04:08:17.175Z,17.12
2022-08-12T04:09:22.359Z,17.13
2022-08-12T04:10:48.725Z,17.21
2022-08-12T04:12:10.333Z,17.15
2022-08-12T04:13:20.103Z,17.18
2022-08-12T04:14:23.138Z,17.17
2022-08-12T04:15:29.349Z,17.15
2022-08-12T04:16:36.949Z,17.21
2022-08-12T04:18:06.800Z,17.28
2022-08-12T04:19:05.961Z,17.14
2022-08-12T04:20:11.794Z,17.11
2022-08-12T04:21:14.889Z,17.22
2022-08-12T04:22:17.842Z,17.18
2022-08-12T04:23:22.216Z,17.21
2022-08-12T04:24:27.090Z,17.16
2022-08-12T04:25:31.784Z,17.21
2022-08-12T04:26:36.175Z,17.27
2022-08-12T04:27:40.566Z,17.12
2022-08-12T04:28:44.201Z,17.17
2022-08-12T04:30:29.075Z,17.08
2022-08-12T04:31:10.391Z,17.05
2022-08-12T04:32:13.940Z,17.24
2022-08-12T04:33:19.156Z,17.22
2022-08-12T04:34:24.066Z,17.18
2022-08-12T04:35:27.508Z,17.14
2022-08-12T04:36:31.724Z,17.16
2022-08-12T04:37:58.423Z,17.17
2022-08-12T04:38:59.856Z,17.34
2022-08-12T04:40:04.173Z,17.38
2022-08-12T04:41:07.630Z,17.38
2022-08-12T04:42:10.388Z,17.43
2022-08-12T04:43:54.535Z,17.25
2022-08-12T04:44:36.747Z,17.26
2022-08-12T04:45:40.297Z,17.41
2022-08-12T04:46:43.277Z,17.45
2022-08-12T04:47:47.529Z,17.47
2022-08-12T04:48:56.221Z,17.52
2022-08-12T04:49:59.622Z,17.44
2022-08-12T04:51:02.888Z,17.53
2022-08-12T04:52:06.060Z,17.45
2022-08-12T04:53:09.470Z,17.46
2022-08-12T04:54:12.368Z,17.54
2022-08-12T04:55:21.081Z,17.69
2022-08-12T04:56:24.469Z,17.73
2022-08-12T04:57:27.280Z,17.67
2022-08-12T04:58:30.478Z,17.70
2022-08-12T04:59:46.733Z,17.72
2022-08-12T05:00:51.407Z,17.76
2022-08-12T05:01:58.177Z,17.72
2022-08-12T05:03:01.109Z,17.83
2022-08-12T05:04:08.210Z,17.86
2022-08-12T05:05:25.371Z,17.85
2022-08-12T05:06:32.177Z,17.83
2022-08-12T05:07:36.389Z,17.86
2022-08-12T05:08:57.649Z,17.80
2022-08-12T05:10:02.482Z,18.06
2022-08-12T05:11:06.386Z,18.07
2022-08-12T05:12:09.414Z,18.05
2022-08-12T05:13:17.664Z,18.05
2022-08-12T05:14:20.469Z,18.14
2022-08-12T05:15:29.253Z,18.21
2022-08-12T05:16:34.368Z,18.22
2022-08-12T05:17:42.343Z,18.17
2022-08-12T05:18:47.907Z,18.20
2022-08-12T05:19:50.808Z,18.30
2022-08-12T05:20:54.153Z,18.28
2022-08-12T05:21:57.691Z,18.40
2022-08-12T05:23:18.600Z,18.42
2022-08-12T05:24:21.533Z,18.40
2022-08-12T05:25:24.801Z,18.50
2022-08-12T05:26:28.631Z,18.46
2022-08-12T05:27:31.968Z,18.54
2022-08-12T05:28:35.807Z,18.61
2022-08-12T05:30:07.971Z,18.68
2022-08-12T05:31:03.193Z,18.69
2022-08-12T05:32:08.271Z,18.63
2022-08-12T05:33:13.725Z,18.70
2022-08-12T05:34:22.783Z,18.83
2022-08-12T05:35:29.207Z,18.81
2022-08-12T05:36:32.080Z,18.90
2022-08-12T05:37:35.628Z,19.01
2022-08-12T05:38:56.581Z,19.11
2022-08-12T05:39:59.949Z,19.11
2022-08-12T05:41:05.713Z,19.09
2022-08-12T05:42:09.926Z,19.27
2022-08-12T05:43:12.855Z,19.36
2022-08-12T05:44:17.157Z,19.38
2022-08-12T05:45:20.176Z,19.37
2022-08-12T05:46:25.059Z,19.40
2022-08-12T05:47:52.894Z,19.60
2022-08-12T05:48:56.894Z,19.66
2022-08-12T05:49:59.867Z,19.77
2022-08-12T05:51:02.887Z,19.84
2022-08-12T05:52:05.848Z,19.88
2022-08-12T05:53:09.081Z,19.90
2022-08-12T05:54:12.378Z,19.97
2022-08-12T05:55:15.585Z,20.03
2022-08-12T05:56:26.984Z,20.04
2022-08-12T05:57:30.667Z,20.14
2022-08-12T05:58:35.150Z,20.25
2022-08-12T05:59:38.917Z,20.50
2022-08-12T06:00:42.664Z,20.76
2022-08-12T06:02:08.956Z,20.81
2022-08-12T06:03:09.209Z,20.68
2022-08-12T06:04:13.566Z,20.65
2022-08-12T06:05:16.563Z,20.68
2022-08-12T06:06:22.387Z,20.81
2022-08-12T06:08:00.391Z,20.85
2022-08-12T06:08:53.871Z,20.85
2022-08-12T06:09:56.919Z,21.03
2022-08-12T06:10:59.787Z,20.98
2022-08-12T06:12:05.998Z,21.01
2022-08-12T06:13:09.577Z,21.04
2022-08-12T06:14:12.434Z,21.05
2022-08-12T06:15:21.313Z,21.14
2022-08-12T06:16:25.858Z,21.18
2022-08-12T06:17:31.315Z,21.08
2022-08-12T06:18:34.433Z,21.11
2022-08-12T06:20:28.645Z,21.27
2022-08-12T06:21:21.978Z,21.35
2022-08-12T06:22:27.421Z,21.45
2022-08-12T06:23:30.623Z,21.52
2022-08-12T06:24:35.238Z,21.45
2022-08-12T06:25:39.418Z,21.51
2022-08-12T06:26:42.602Z,21.60
2022-08-12T06:28:07.497Z,21.58
2022-08-12T06:29:35.857Z,21.64
2022-08-12T06:30:41.630Z,21.43
2022-08-12T06:31:45.549Z,21.56
2022-08-12T06:33:18.558Z,21.56
2022-08-12T06:35:25.148Z,21.72
2022-08-12T06:35:48.762Z,21.90
2022-08-12T06:36:54.991Z,21.89
2022-08-12T06:37:59.879Z,21.95
2022-08-12T06:39:03.371Z,21.94
2022-08-12T06:40:09.302Z,21.90
2022-08-12T06:41:31.545Z,21.77
2022-08-12T06:42:49.432Z,21.95
2022-08-12T06:44:04.760Z,22.02
2022-08-12T06:45:12.452Z,22.11
2022-08-12T06:46:15.696Z,22.13
2022-08-12T06:47:20.035Z,22.35
2022-08-12T06:48:25.452Z,22.40
2022-08-12T06:49:30.575Z,22.38
2022-08-12T06:50:38.133Z,22.42
2022-08-12T06:51:53.630Z,22.63
2022-08-12T06:53:00.854Z,22.68
2022-08-12T06:54:03.940Z,22.70
2022-08-12T06:55:07.733Z,22.69
2022-08-12T06:56:12.548Z,22.72
2022-08-12T06:58:08.293Z,22.74
2022-08-12T06:58:40.459Z,22.91
2022-08-12T06:59:44.275Z,22.75
2022-08-12T07:00:51.347Z,23.07
2022-08-12T07:01:55.788Z,23.21
2022-08-12T07:02:58.728Z,23.14
2022-08-12T07:04:37.424Z,23.17
2022-08-12T07:05:42.605Z,23.21
2022-08-12T07:06:46.136Z,23.13
2022-08-12T07:07:49.054Z,23.26
2022-08-12T07:08:52.363Z,23.45
2022-08-12T07:10:04.500Z,23.47
2022-08-12T07:11:13.715Z,23.72
2022-08-12T07:12:20.128Z,23.67
2022-08-12T07:13:23.895Z,23.79
2022-08-12T07:14:27.337Z,23.91
2022-08-12T07:15:30.996Z,23.80
2022-08-12T07:16:52.550Z,23.71
2022-08-12T07:18:20.027Z,23.77
2022-08-12T07:19:23.308Z,23.89
2022-08-12T07:20:51.564Z,23.94
2022-08-12T07:21:59.697Z,24.10
2022-08-12T07:23:06.265Z,23.96
2022-08-12T07:24:09.281Z,24.00
2022-08-12T07:25:30.965Z,24.10
2022-08-12T07:26:44.994Z,23.96
2022-08-12T07:27:53.129Z,24.03
2022-08-12T07:28:56.261Z,24.04
2022-08-12T07:30:04.307Z,24.32
2022-08-12T07:31:12.749Z,24.35
2022-08-12T07:32:23.924Z,24.25
2022-08-12T07:33:30.281Z,24.24
2022-08-12T07:34:33.202Z,24.16
2022-08-12T07:35:45.860Z,24.39
2022-08-12T07:36:52.280Z,24.59
2022-08-12T07:38:05.890Z,24.80
2022-08-12T07:39:16.132Z,24.94
2022-08-12T07:40:21.269Z,24.85
2022-08-12T07:41:29.093Z,24.99
2022-08-12T07:42:32.104Z,24.88
2022-08-12T07:43:39.317Z,24.95
2022-08-12T07:44:44.139Z,24.87
2022-08-12T07:45:47.160Z,24.90
2022-08-12T07:46:50.301Z,24.97
2022-08-12T07:47:53.313Z,25.07
2022-08-12T07:49:05.565Z,25.12
2022-08-12T07:50:09.546Z,25.17
2022-08-12T07:51:24.875Z,25.25
2022-08-12T07:52:30.816Z,25.61
2022-08-12T07:53:47.714Z,25.73
2022-08-12T07:55:00.531Z,25.78
2022-08-12T07:56:05.904Z,25.89
2022-08-12T07:57:12.094Z,26.17
2022-08-12T07:58:20.759Z,26.08
2022-08-12T07:59:24.409Z,26.32
2022-08-12T08:00:30.514Z,26.21
2022-08-12T08:01:33.601Z,26.16
2022-08-12T08:02:37.785Z,26.23
2022-08-12T08:04:03.664Z,26.31
2022-08-12T08:05:07.442Z,26.28
2022-08-12T08:06:18.804Z,26.23
2022-08-12T08:07:25.058Z,26.67
2022-08-12T08:08:31.612Z,26.51
2022-08-12T08:09:34.795Z,26.66
2022-08-12T08:10:38.038Z,26.63
2022-08-12T08:11:59.652Z,26.72
2022-08-12T08:13:05.380Z,26.79
2022-08-12T08:14:10.446Z,26.69
2022-08-12T08:15:15.401Z,27.13
2022-08-12T08:16:18.642Z,27.35
2022-08-12T08:17:22.904Z,27.31
2022-08-12T08:18:27.644Z,27.51
2022-08-12T08:19:32.360Z,27.60
2022-08-12T08:20:41.438Z,27.34
2022-08-12T08:21:44.311Z,27.72
2022-08-12T08:22:47.166Z,27.66
2022-08-12T08:24:10.868Z,27.81
2022-08-12T08:25:35.961Z,27.75
2022-08-12T08:26:37.832Z,27.83
2022-08-12T08:27:48.171Z,27.88
2022-08-12T08:28:51.726Z,27.81
2022-08-12T08:29:55.416Z,27.87
2022-08-12T08:30:58.289Z,27.96
2022-08-12T08:32:01.805Z,28.02
2022-08-12T08:33:22.998Z,28.29
2022-08-12T08:34:54.200Z,28.34
2022-08-12T08:35:54.299Z,28.18
2022-08-12T08:36:58.120Z,28.37
2022-08-12T08:38:14.159Z,28.80
2022-08-12T08:39:27.723Z,28.85
2022-08-12T08:40:49.093Z,28.73
2022-08-12T08:42:17.697Z,28.91
2022-08-12T08:43:22.498Z,29.02
2022-08-12T08:44:25.660Z,28.90
2022-08-12T08:45:28.960Z,29.11
2022-08-12T08:46:34.690Z,29.28
2022-08-12T08:47:44.324Z,29.39
2022-08-12T08:48:47.565Z,29.38
2022-08-12T08:49:50.593Z,29.61
2022-08-12T08:51:04.139Z,29.60
2022-08-12T08:52:10.099Z,29.70
2022-08-12T08:53:13.223Z,29.59
2022-08-12T08:54:16.577Z,29.80
2022-08-12T08:55:24.170Z,29.84
2022-08-12T08:57:43.107Z,29.77
2022-08-12T08:58:47.669Z,29.84
2022-08-12T08:59:51.815Z,29.71
2022-08-12T09:00:56.672Z,29.87
2022-08-12T09:01:59.962Z,30.02
2022-08-12T09:03:04.439Z,29.73
2022-08-12T09:05:13.646Z,29.71
2022-08-12T09:06:08.398Z,29.92
2022-08-12T09:07:43.822Z,29.91
2022-08-12T09:08:46.327Z,30.13
2022-08-12T09:12:06.636Z,30.34
2022-08-12T09:13:23.762Z,30.58
2022-08-12T09:14:46.899Z,30.66
2022-08-12T09:17:20.960Z,30.41
2022-08-12T09:18:30.803Z,30.63
2022-08-12T09:19:34.937Z,30.95
2022-08-12T09:20:39.648Z,31.02
2022-08-12T09:23:58.431Z,31.15
2022-08-12T09:24:34.844Z,31.08
2022-08-12T09:25:42.809Z,31.12
2022-08-12T09:26:47.781Z,31.04
2022-08-12T09:30:10.745Z,30.85
2022-08-12T09:30:52.842Z,30.94
2022-08-12T09:32:07.773Z,31.25
2022-08-12T09:33:18.996Z,31.75
2022-08-12T09:34:26.508Z,31.95
2022-08-12T09:35:42.937Z,31.81
2022-08-12T09:36:59.930Z,31.97
2022-08-12T09:38:05.351Z,31.84
2022-08-12T09:40:00.901Z,31.83
2022-08-12T09:42:09.864Z,31.65
2022-08-12T09:43:07.802Z,32.08
2022-08-12T09:44:39.082Z,32.05
2022-08-12T09:46:06.466Z,32.37
2022-08-12T09:47:13.355Z,31.40
2022-08-12T09:48:20.236Z,32.15
2022-08-12T09:49:25.385Z,31.65
2022-08-12T09:50:28.699Z,31.77
2022-08-12T09:51:37.742Z,31.80
2022-08-12T09:52:46.833Z,31.72
2022-08-12T09:54:06.837Z,31.53
2022-08-12T09:56:06.433Z,31.85
2022-08-12T09:57:00.568Z,31.64
2022-08-12T09:58:07.357Z,32.34
2022-08-12T10:00:17.381Z,32.30
2022-08-12T10:00:53.012Z,32.67
2022-08-12T10:02:45.236Z,32.54
2022-08-12T10:03:32.085Z,32.72
2022-08-12T10:04:35.972Z,32.75
2022-08-12T10:06:19.687Z,33.10
2022-08-12T10:07:22.997Z,33.06
2022-08-12T10:08:33.001Z,33.18
2022-08-12T10:09:58.790Z,33.14
2022-08-12T10:11:21.012Z,33.34
2022-08-12T10:13:07.983Z,33.01
2022-08-12T10:14:05.422Z,33.22
2022-08-12T10:16:01.455Z,33.32
2022-08-12T10:16:44.466Z,32.51
2022-08-12T10:17:56.621Z,33.17
2022-08-12T10:19:17.610Z,32.96
2022-08-12T10:20:20.913Z,33.26
2022-08-12T10:21:35.819Z,32.89
2022-08-12T10:22:41.719Z,32.77
2022-08-12T10:23:51.483Z,32.76
2022-08-12T10:25:17.839Z,32.83
2022-08-12T10:26:40.521Z,32.16
2022-08-12T10:28:16.216Z,32.41
2022-08-12T10:30:02.968Z,32.53
2022-08-12T10:31:05.093Z,31.86
2022-08-12T10:32:44.184Z,31.09
2022-08-12T10:33:55.082Z,31.39
2022-08-12T10:35:09.737Z,31.90
2022-08-12T10:36:12.906Z,32.18
2022-08-12T10:38:35.973Z,32.14
2022-08-12T10:38:58.347Z,32.44
2022-08-12T10:40:09.490Z,32.56
2022-08-12T10:41:57.133Z,31.39
2022-08-12T10:43:16.826Z,30.85
2022-08-12T10:44:20.718Z,31.63
2022-08-12T10:45:27.170Z,32.53
2022-08-12T10:46:37.253Z,33.27
2022-08-12T10:48:19.835Z,33.59
2022-08-12T10:49:06.784Z,32.87
2022-08-12T10:50:35.907Z,32.94
2022-08-12T10:52:32.793Z,32.49
2022-08-12T10:53:43.610Z,32.20
2022-08-12T10:54:49.499Z,32.45
2022-08-12T10:55:56.422Z,32.93
2022-08-12T10:57:01.082Z,32.87
2022-08-12T10:58:14.200Z,32.84
2022-08-12T11:00:31.855Z,32.72
2022-08-12T11:01:26.250Z,33.29
2022-08-12T11:04:23.064Z,33.60
2022-08-12T11:04:35.659Z,33.73
2022-08-12T11:07:06.103Z,33.96
2022-08-12T11:07:06.417Z,33.96
2022-08-12T11:08:37.282Z,34.11
2022-08-12T11:09:55.944Z,34.34
2022-08-12T11:11:03.046Z,34.48
2022-08-12T11:12:55.111Z,33.57
2022-08-12T11:13:45.971Z,33.59
2022-08-12T11:14:52.358Z,33.95
2022-08-12T11:16:19.193Z,34.31
2022-08-12T11:17:43.861Z,34.12
2022-08-12T11:18:43.131Z,33.52
2022-08-12T11:19:49.010Z,33.17
2022-08-12T11:20:53.793Z,32.85
2022-08-12T11:22:03.075Z,32.59
2022-08-12T11:23:25.880Z,31.68
2022-08-12T11:24:32.346Z,31.93
2022-08-12T11:25:56.045Z,31.45
2022-08-12T11:27:01.889Z,31.41
2022-08-12T11:28:13.441Z,31.72
2022-08-12T11:29:22.203Z,31.91
2022-08-12T11:30:32.849Z,31.46
2022-08-12T11:31:56.295Z,31.23
2022-08-12T11:32:59.341Z,31.26
2022-08-12T11:34:05.377Z,31.92
2022-08-12T11:35:43.881Z,31.69
2022-08-12T11:36:58.563Z,31.63
2022-08-12T11:38:02.042Z,32.25
2022-08-12T11:39:06.183Z,32.52
2022-08-12T11:41:31.053Z,32.30
2022-08-12T11:42:37.276Z,32.07
2022-08-12T11:43:50.320Z,32.38
2022-08-12T11:45:01.434Z,32.39
2022-08-12T11:46:04.344Z,32.37
2022-08-12T11:47:09.545Z,31.94
2022-08-12T11:48:15.154Z,31.66
2022-08-12T11:49:26.812Z,31.88
2022-08-12T11:50:35.411Z,31.86
2022-08-12T11:51:45.174Z,31.79
2022-08-12T11:53:00.754Z,31.52
2022-08-12T11:54:06.635Z,31.77
2022-08-12T11:55:12.970Z,31.61
2022-08-12T11:56:17.942Z,31.23
2022-08-12T11:58:08.693Z,31.39
2022-08-12T12:02:01.209Z,30.81
2022-08-12T12:02:53.893Z,30.86
2022-08-12T12:03:57.092Z,30.76
2022-08-12T12:05:01.560Z,30.90
2022-08-12T12:06:07.328Z,31.01
2022-08-12T12:07:11.897Z,30.93
2022-08-12T12:08:37.533Z,30.62
2022-08-12T12:09:52.066Z,30.37
2022-08-12T12:10:56.802Z,30.66
2022-08-12T12:12:01.169Z,30.60
2022-08-12T12:13:04.436Z,29.97
2022-08-12T12:14:38.037Z,30.19
2022-08-12T12:15:42.705Z,30.74
2022-08-12T12:16:48.228Z,31.31
2022-08-12T12:17:55.747Z,31.49
2022-08-12T12:18:59.151Z,31.60
2022-08-12T12:20:04.247Z,31.83
2022-08-12T12:21:09.131Z,31.56
2022-08-12T12:22:15.793Z,31.88
2022-08-12T12:23:29.018Z,32.37
2022-08-12T12:24:32.302Z,31.88
2022-08-12T12:26:07.512Z,32.05
2022-08-12T12:27:00.914Z,31.83
2022-08-12T12:28:06.122Z,32.46
2022-08-12T12:30:14.053Z,32.51
2022-08-12T12:30:32.939Z,32.23
2022-08-12T12:32:10.692Z,32.59
2022-08-12T12:32:58.971Z,31.95
2022-08-12T12:34:01.833Z,31.32
2022-08-12T12:35:14.369Z,31.20
2022-08-12T12:36:49.474Z,30.81
2022-08-12T12:38:12.196Z,31.10
2022-08-12T12:39:15.519Z,31.10
2022-08-12T12:40:22.018Z,31.30
2022-08-12T12:42:45.097Z,31.36
2022-08-12T12:43:00.617Z,31.50
2022-08-12T12:44:07.963Z,31.58
2022-08-12T12:45:19.451Z,31.56
2022-08-12T12:46:23.467Z,31.77
2022-08-12T12:47:29.184Z,31.67
2022-08-12T12:48:33.795Z,31.62
2022-08-12T12:49:37.661Z,31.62
2022-08-12T12:51:09.444Z,31.72
2022-08-12T12:52:18.502Z,31.78
2022-08-12T12:54:07.811Z,32.18
2022-08-12T12:54:53.097Z,32.25
2022-08-12T12:55:56.040Z,32.25
2022-08-12T12:57:01.187Z,32.07
2022-08-12T12:58:14.665Z,31.34
2022-08-12T12:59:56.573Z,31.50
2022-08-12T13:00:50.928Z,32.22
2022-08-12T13:01:54.154Z,32.53
2022-08-12T13:02:57.284Z,32.42
2022-08-12T13:04:02.167Z,32.78
2022-08-12T13:05:13.937Z,32.82
2022-08-12T13:06:18.925Z,32.97
2022-08-12T13:07:22.403Z,32.79
2022-08-12T13:08:46.881Z,33.01
2022-08-12T13:09:50.077Z,33.05
2022-08-12T13:10:55.721Z,32.67
2022-08-12T13:12:01.580Z,31.48
2022-08-12T13:14:11.951Z,32.36
2022-08-12T13:14:48.484Z,32.49
2022-08-12T13:15:54.218Z,32.67
2022-08-12T13:17:03.321Z,32.68
2022-08-12T13:18:07.705Z,32.53
2022-08-12T13:19:11.307Z,32.46
2022-08-12T13:20:39.751Z,32.30
2022-08-12T13:22:02.743Z,32.26
2022-08-12T13:23:37.129Z,31.80
2022-08-12T13:24:31.948Z,31.88
2022-08-12T13:25:35.072Z,31.64
2022-08-12T13:26:40.557Z,31.31
2022-08-12T13:27:48.578Z,31.08
2022-08-12T13:28:55.847Z,30.85
2022-08-12T13:30:03.961Z,30.84
2022-08-12T13:31:08.478Z,30.77
2022-08-12T13:32:19.557Z,30.02
2022-08-12T13:34:29.627Z,30.38
2022-08-12T13:35:04.515Z,30.14
2022-08-12T13:36:22.805Z,29.55
2022-08-12T13:37:26.935Z,29.83
2022-08-12T13:38:54.681Z,29.83
2022-08-12T13:39:57.622Z,29.65
2022-08-12T13:41:04.064Z,29.53
2022-08-12T13:42:14.912Z,29.41
2022-08-12T13:43:41.282Z,29.74
2022-08-12T13:44:41.155Z,29.85
2022-08-12T13:45:44.431Z,29.96
2022-08-12T13:46:58.950Z,29.76
2022-08-12T13:48:05.764Z,30.05
2022-08-12T13:49:17.588Z,30.31
2022-08-12T13:50:38.052Z,30.58
2022-08-12T13:51:42.803Z,30.54
2022-08-12T13:52:46.715Z,30.63
2022-08-12T13:53:57.764Z,30.26
2022-08-12T13:55:06.299Z,30.38
2022-08-12T13:56:17.926Z,29.88
2022-08-12T13:57:44.572Z,30.10
2022-08-12T13:58:52.604Z,30.01
2022-08-12T14:00:00.751Z,29.78
2022-08-12T14:01:10.993Z,29.52
2022-08-12T14:02:17.579Z,29.53
2022-08-12T14:03:22.403Z,29.46
2022-08-12T14:04:31.666Z,29.49
2022-08-12T14:05:39.070Z,29.63
2022-08-12T14:06:44.789Z,29.33
2022-08-12T14:08:01.595Z,28.95
2022-08-12T14:09:17.565Z,28.95
2022-08-12T14:10:38.659Z,28.77
2022-08-12T14:11:41.562Z,28.74
2022-08-12T14:12:54.628Z,28.88
2022-08-12T14:14:14.379Z,28.94
2022-08-12T14:15:19.502Z,29.02
2022-08-12T14:16:46.815Z,28.95
2022-08-12T14:17:52.263Z,29.25
2022-08-12T14:18:56.604Z,28.79
2022-08-12T14:20:15.726Z,28.91
2022-08-12T14:21:22.489Z,29.19
2022-08-12T14:22:26.235Z,29.15
2022-08-12T14:24:04.216Z,29.22
2022-08-12T14:24:53.785Z,29.46
2022-08-12T14:25:59.241Z,29.46
2022-08-12T14:27:09.144Z,29.87
2022-08-12T14:28:17.395Z,30.04
2022-08-12T14:29:29.518Z,29.86
2022-08-12T14:31:02.808Z,30.02
2022-08-12T14:32:07.962Z,30.18
2022-08-12T14:33:23.175Z,30.03
2022-08-12T14:34:28.442Z,30.25
2022-08-12T14:35:44.925Z,30.66
2022-08-12T14:36:59.597Z,30.83
2022-08-12T14:38:26.107Z,30.71
2022-08-12T14:39:29.309Z,30.97
2022-08-12T14:40:33.687Z,31.15
2022-08-12T14:41:48.653Z,30.88
2022-08-12T14:43:00.276Z,30.92
2022-08-12T14:44:56.954Z,31.18
2022-08-12T14:45:44.895Z,31.04
2022-08-12T14:46:57.999Z,31.12
2022-08-12T14:48:03.838Z,31.12
2022-08-12T14:50:01.720Z,30.91
2022-08-12T14:50:37.190Z,30.35
2022-08-12T14:52:43.369Z,29.58
2022-08-12T14:57:56.504Z,30.02
2022-08-12T14:59:20.507Z,30.32
2022-08-12T15:00:52.207Z,30.59
2022-08-12T15:01:56.914Z,30.74
2022-08-12T15:03:00.277Z,30.37
2022-08-12T15:04:03.769Z,30.56
2022-08-12T15:05:08.138Z,30.74
2022-08-12T15:06:39.453Z,30.74
2022-08-12T15:07:49.487Z,30.58
2022-08-12T15:08:55.570Z,30.71
2022-08-12T15:09:59.876Z,30.69
2022-08-12T15:11:14.268Z,30.62
2022-08-12T15:12:17.315Z,30.85
2022-08-12T15:13:27.527Z,30.87
2022-08-12T15:14:35.241Z,30.92
2022-08-12T15:15:45.530Z,31.01
2022-08-12T15:16:48.963Z,30.94
2022-08-12T15:18:00.849Z,30.93
2022-08-12T15:20:00.094Z,31.00
2022-08-12T15:20:37.531Z,31.13
2022-08-12T15:22:37.104Z,31.15
2022-08-12T15:23:18.173Z,30.85
2022-08-12T15:24:24.488Z,30.97
2022-08-12T15:25:28.641Z,30.83
2022-08-12T15:26:38.941Z,30.81
2022-08-12T15:28:20.594Z,30.38
2022-08-12T15:29:10.395Z,30.14
2022-08-12T15:30:14.226Z,29.80
2022-08-12T15:31:28.036Z,29.59
2022-08-12T15:32:32.878Z,29.42
2022-08-12T15:33:44.924Z,29.28
2022-08-12T15:34:49.768Z,28.91
2022-08-12T15:35:56.892Z,28.81
2022-08-12T15:36:59.945Z,29.13
2022-08-12T15:38:13.779Z,29.18
2022-08-12T15:39:19.157Z,29.19
2022-08-12T15:40:30.059Z,29.30
2022-08-12T15:41:49.554Z,29.28
2022-08-12T15:42:54.943Z,29.46
2022-08-12T15:44:38.905Z,29.81
2022-08-12T15:45:25.596Z,29.78
2022-08-12T15:46:35.068Z,29.25